Weather at Artesia Municipal Airport

Public forecast

Using degrees Fahrenheit for public forecast. Weather courtesy of forecast.io.

Current aviation weather report (METAR) for Artesia Municipal Airport

Retrieved 2020/11/29 15:35 UTC (0 seconds ago):

KATS 291535Z AUTO 02010KT 10SM CLR 04/M01 A3029 RMK AO2

Closest aviation forecast (TAF) to Artesia Municipal Airport

Closest forecast is Roswell Air Center Airport, 27.1 nm (50.3 km) N. Retrieved 2020/11/29 12:42 UTC (3 hours ago):

TAF KROW 291141Z 2912/3012 35006KT P6SM SKC FM291600 35012KT P6SM SKC FM291700 36022G30KT P6SM SKC FM292300 02011KT P6SM SKC FM300200 36006KT P6SM SKC